Terminal Aerodrome Forecast
Issued by NWS Cleveland, OH

Home | Current Version | Previous Version | Text Only | Print | Product List | Glossary Off
Versions: 1 2 3 4 5 6 7 8 9 10 11 12 13 14 15 16 17 18 19

000
FTUS41 KCLE 191140
TAFMFD
TAF
KMFD 191140Z 1912/2012 22007KT P6SM OVC007
     FM191800 17005KT P6SM BKN100 OVC250
     FM192300 11005KT P6SM OVC100
     FM200800 09005KT 6SM -RA OVC040
     FM201000 09007KT 3SM -RA BR OVC005=

USA.gov is the U.S. government's official web portal to all federal, state and local government web resources and services.